createdAt,value
2018-12-13T00:01:48.165Z,100612.39
2018-12-13T00:04:14.489Z,100610.83
2018-12-13T00:06:40.422Z,100599.70
2018-12-13T00:09:06.359Z,100602.14
2018-12-13T00:11:32.342Z,100597.94
2018-12-13T00:13:58.284Z,100602.09
2018-12-13T00:16:24.254Z,100597.07
2018-12-13T00:18:50.203Z,100603.91
2018-12-13T00:21:16.164Z,100598.12
2018-12-13T00:23:42.127Z,100602.44
2018-12-13T00:26:08.073Z,100601.28
2018-12-13T00:28:34.017Z,100599.11
2018-12-13T00:30:59.967Z,100602.87
2018-12-13T00:33:25.921Z,100602.97
2018-12-13T00:35:51.862Z,100602.02
2018-12-13T00:38:18.559Z,100600.14
2018-12-13T00:40:44.512Z,100597.64
2018-12-13T00:43:10.463Z,100596.73
2018-12-13T00:45:36.416Z,100603.05
2018-12-13T00:48:02.378Z,100603.72
2018-12-13T00:50:28.320Z,100598.18
2018-12-13T00:52:54.284Z,100596.53
2018-12-13T00:55:20.233Z,100600.00
2018-12-13T00:57:46.195Z,100602.52
2018-12-13T01:00:12.150Z,100606.02
2018-12-13T01:02:38.120Z,100599.42
2018-12-13T01:05:04.072Z,100599.65
2018-12-13T01:07:30.040Z,100601.95
2018-12-13T01:09:56.001Z,100600.13
2018-12-13T01:12:21.932Z,100598.36
2018-12-13T01:14:47.888Z,100601.14
2018-12-13T01:17:13.837Z,100600.49
2018-12-13T01:19:39.776Z,100602.38
2018-12-13T01:22:05.726Z,100598.88
2018-12-13T01:24:31.651Z,100593.02
2018-12-13T01:26:57.596Z,100600.53
2018-12-13T01:29:23.543Z,100596.19
2018-12-13T01:31:49.503Z,100591.28
2018-12-13T01:34:15.491Z,100591.22
2018-12-13T01:36:41.471Z,100592.47
2018-12-13T01:39:07.416Z,100596.62
2018-12-13T01:41:33.375Z,100594.92
2018-12-13T01:43:59.339Z,100582.42
2018-12-13T01:46:25.292Z,100585.42
2018-12-13T01:48:51.230Z,100582.69
2018-12-13T01:51:17.180Z,100577.16
2018-12-13T01:53:43.144Z,100574.28
2018-12-13T01:56:09.086Z,100568.42
2018-12-13T01:58:35.045Z,100571.19
2018-12-13T02:01:01.003Z,100565.03
2018-12-13T02:03:27.487Z,100572.17
2018-12-13T02:05:53.445Z,100572.33
2018-12-13T02:08:19.396Z,100573.41
2018-12-13T02:10:45.333Z,100567.69
2018-12-13T02:13:11.300Z,100568.08
2018-12-13T02:15:37.251Z,100572.76
2018-12-13T02:18:03.213Z,100570.15
2018-12-13T02:20:29.156Z,100561.73
2018-12-13T02:22:55.976Z,100572.21
2018-12-13T02:25:21.911Z,100563.05
2018-12-13T02:27:47.865Z,100558.92
2018-12-13T02:30:13.893Z,100563.30
2018-12-13T02:32:39.875Z,100555.22
2018-12-13T02:35:05.831Z,100563.35
2018-12-13T02:37:31.803Z,100557.80
2018-12-13T02:39:57.772Z,100556.64
2018-12-13T02:42:23.771Z,100555.52
2018-12-13T02:44:49.746Z,100553.41
2018-12-13T02:47:15.742Z,100548.13
2018-12-13T02:49:41.705Z,100547.84
2018-12-13T02:52:07.667Z,100539.00
2018-12-13T02:54:33.633Z,100534.03
2018-12-13T02:56:59.696Z,100533.09
2018-12-13T02:59:25.656Z,100528.34
2018-12-13T03:01:51.610Z,100531.73
2018-12-13T03:04:17.594Z,100539.81
2018-12-13T03:06:43.547Z,100546.28
2018-12-13T03:09:09.498Z,100536.45
2018-12-13T03:11:35.453Z,100533.97
2018-12-13T03:14:01.429Z,100541.86
2018-12-13T03:16:27.378Z,100539.53
2018-12-13T03:18:53.339Z,100537.78
2018-12-13T03:21:19.280Z,100531.02
2018-12-13T03:23:45.235Z,100525.00
2018-12-13T03:26:11.201Z,100523.74
2018-12-13T03:28:37.179Z,100518.87
2018-12-13T03:31:03.148Z,100517.22
2018-12-13T03:33:29.129Z,100524.23
2018-12-13T03:35:55.077Z,100518.64
2018-12-13T03:38:21.031Z,100514.73
2018-12-13T03:40:46.983Z,100506.29
2018-12-13T03:43:12.951Z,100507.19
2018-12-13T03:45:38.924Z,100517.41
2018-12-13T03:48:04.885Z,100511.59
2018-12-13T03:50:30.844Z,100504.20
2018-12-13T03:52:56.776Z,100506.12
2018-12-13T03:55:22.717Z,100499.81
2018-12-13T03:57:48.678Z,100501.20
2018-12-13T04:00:14.863Z,100497.94
2018-12-13T04:02:40.843Z,100503.36
2018-12-13T04:05:06.800Z,100498.59
2018-12-13T04:07:32.756Z,100507.59
2018-12-13T04:09:58.734Z,100503.31
2018-12-13T04:12:24.713Z,100508.19
2018-12-13T04:14:50.673Z,100505.63
2018-12-13T04:17:16.648Z,100502.11
2018-12-13T04:19:42.626Z,100499.06
2018-12-13T04:22:08.637Z,100503.64
2018-12-13T04:24:34.623Z,100503.57
2018-12-13T04:27:00.596Z,100494.36
2018-12-13T04:29:26.575Z,100499.64
2018-12-13T04:31:52.544Z,100503.12
2018-12-13T04:34:18.509Z,100498.93
2018-12-13T04:36:44.503Z,100500.34
2018-12-13T04:39:10.565Z,100496.50
2018-12-13T04:41:36.573Z,100499.94
2018-12-13T04:44:02.580Z,100500.42
2018-12-13T04:46:28.542Z,100504.17
2018-12-13T04:48:54.551Z,100507.95
2018-12-13T04:51:21.671Z,100503.18
2018-12-13T04:53:47.640Z,100496.30
2018-12-13T04:56:13.610Z,100501.50
2018-12-13T04:58:39.567Z,100503.88
2018-12-13T05:01:05.533Z,100499.59
2018-12-13T05:03:31.496Z,100497.09
2018-12-13T05:05:57.456Z,100501.52
2018-12-13T05:08:23.422Z,100502.31
2018-12-13T05:10:49.392Z,100505.14
2018-12-13T05:13:15.373Z,100504.08
2018-12-13T05:15:41.312Z,100500.66
2018-12-13T05:18:07.292Z,100502.52
2018-12-13T05:20:33.262Z,100500.44
2018-12-13T05:22:59.213Z,100501.13
2018-12-13T05:25:28.670Z,100500.52
2018-12-13T05:27:54.668Z,100511.34
2018-12-13T05:30:20.620Z,100504.31
2018-12-13T05:32:46.627Z,100505.63
2018-12-13T05:35:12.611Z,100502.88
2018-12-13T05:37:38.664Z,100499.83
2018-12-13T05:40:04.636Z,100498.86
2018-12-13T05:42:30.599Z,100499.84
2018-12-13T05:44:56.606Z,100494.63
2018-12-13T05:47:22.548Z,100496.47
2018-12-13T05:49:48.622Z,100492.56
2018-12-13T05:52:14.619Z,100494.01
2018-12-13T05:54:40.593Z,100494.34
2018-12-13T05:57:06.529Z,100494.25
2018-12-13T05:59:32.487Z,100496.77
2018-12-13T06:01:58.443Z,100491.21
2018-12-13T06:04:24.413Z,100499.31
2018-12-13T06:06:50.902Z,100494.64
2018-12-13T06:09:16.907Z,100497.05
2018-12-13T06:11:42.926Z,100496.27
2018-12-13T06:14:10.005Z,100499.13
2018-12-13T06:16:36.111Z,100500.57
2018-12-13T06:19:02.061Z,100492.03
2018-12-13T06:21:28.071Z,100489.67
2018-12-13T06:23:54.122Z,100494.95
2018-12-13T06:26:21.155Z,100489.80
2018-12-13T06:28:47.133Z,100489.95
2018-12-13T06:31:13.101Z,100493.48
2018-12-13T06:33:39.094Z,100494.63
2018-12-13T06:36:05.045Z,100497.45
2018-12-13T06:38:31.191Z,100499.41
2018-12-13T06:40:57.149Z,100494.30
2018-12-13T06:43:23.084Z,100500.57
2018-12-13T06:45:49.062Z,100496.17
2018-12-13T06:48:15.059Z,100492.85
2018-12-13T06:50:41.046Z,100500.89
2018-12-13T06:53:07.052Z,100497.22
2018-12-13T06:55:33.124Z,100495.17
2018-12-13T06:57:59.086Z,100495.70
2018-12-13T07:00:25.071Z,100493.00
2018-12-13T07:02:51.058Z,100487.60
2018-12-13T07:05:17.696Z,100484.80
2018-12-13T07:07:44.365Z,100487.20
2018-12-13T07:10:10.309Z,100484.13
2018-12-13T07:12:36.255Z,100480.47
2018-12-13T07:15:02.199Z,100483.44
2018-12-13T07:17:28.167Z,100479.72
2018-12-13T07:19:54.105Z,100468.97
2018-12-13T07:22:20.110Z,100482.41
2018-12-13T07:24:46.094Z,100477.99
2018-12-13T07:27:12.109Z,100473.30
2018-12-13T07:29:38.071Z,100475.70
2018-12-13T07:32:04.046Z,100470.36
2018-12-13T07:34:30.005Z,100475.34
2018-12-13T07:36:55.977Z,100467.18
2018-12-13T07:39:21.916Z,100469.12
2018-12-13T07:41:47.987Z,100478.19
2018-12-13T07:44:13.979Z,100475.82
2018-12-13T07:46:39.934Z,100473.78
2018-12-13T07:49:05.885Z,100479.67
2018-12-13T07:54:03.058Z,100477.74
2018-12-13T07:56:30.078Z,100483.07
2018-12-13T07:58:56.022Z,100475.17
2018-12-13T08:01:22.019Z,100474.47
2018-12-13T08:03:47.975Z,100476.52
2018-12-13T08:06:13.947Z,100474.34
2018-12-13T08:08:39.891Z,100473.09
2018-12-13T08:11:05.895Z,100473.63
2018-12-13T08:13:32.973Z,100482.56
2018-12-13T08:15:58.923Z,100478.07
2018-12-13T08:18:24.882Z,100478.85
2018-12-13T08:20:50.937Z,100475.64
2018-12-13T08:23:16.902Z,100472.36
2018-12-13T08:25:42.846Z,100477.91
2018-12-13T08:28:08.791Z,100475.80
2018-12-13T08:30:34.744Z,100480.77
2018-12-13T08:33:00.714Z,100483.45
2018-12-13T08:35:26.659Z,100474.70
2018-12-13T08:37:52.615Z,100478.45
2018-12-13T08:40:18.569Z,100476.61
2018-12-13T08:42:44.519Z,100476.61
2018-12-13T08:45:10.463Z,100476.14
2018-12-13T08:47:36.418Z,100468.23
2018-12-13T08:50:02.348Z,100472.20
2018-12-13T08:52:28.662Z,100475.28
2018-12-13T08:54:54.593Z,100473.47
2018-12-13T08:57:20.553Z,100473.91
2018-12-13T08:59:46.507Z,100474.95
2018-12-13T09:02:12.477Z,100474.66
2018-12-13T09:04:38.427Z,100472.14
2018-12-13T09:07:04.397Z,100477.71
2018-12-13T09:09:30.338Z,100479.06
2018-12-13T09:11:56.311Z,100480.97
2018-12-13T09:14:22.244Z,100476.60
2018-12-13T09:16:48.223Z,100472.62
2018-12-13T09:19:14.318Z,100468.09
2018-12-13T09:21:40.331Z,100466.25
2018-12-13T09:24:06.310Z,100469.16
2018-12-13T09:26:32.275Z,100464.42
2018-12-13T09:28:58.235Z,100458.84
2018-12-13T09:31:24.185Z,100461.69
2018-12-13T09:33:53.281Z,100461.20
2018-12-13T09:36:19.248Z,100458.98
2018-12-13T09:38:45.220Z,100453.43
2018-12-13T09:41:11.256Z,100446.80
2018-12-13T09:43:37.199Z,100447.99
2018-12-13T09:46:03.167Z,100442.55
2018-12-13T09:48:29.129Z,100444.83
2018-12-13T09:50:55.117Z,100437.04
2018-12-13T09:53:22.085Z,100440.94
2018-12-13T09:55:48.054Z,100434.04
2018-12-13T09:58:14.061Z,100434.84
2018-12-13T10:00:40.037Z,100426.35
2018-12-13T10:03:06.020Z,100425.27
2018-12-13T10:05:31.977Z,100420.25
2018-12-13T10:07:57.944Z,100421.51
2018-12-13T10:10:23.904Z,100421.94
2018-12-13T10:12:49.875Z,100412.22
2018-12-13T10:15:15.860Z,100413.55
2018-12-13T10:17:41.859Z,100411.52
2018-12-13T10:20:07.862Z,100414.12
2018-12-13T10:22:33.846Z,100410.62
2018-12-13T10:24:59.833Z,100417.66
2018-12-13T10:27:25.769Z,100414.63
2018-12-13T10:29:51.740Z,100404.94
2018-12-13T10:32:17.708Z,100411.99
2018-12-13T10:34:43.675Z,100410.60
2018-12-13T10:37:09.634Z,100417.27
2018-12-13T10:39:35.582Z,100415.98
2018-12-13T10:42:01.521Z,100414.03
2018-12-13T10:44:27.476Z,100410.62
2018-12-13T10:46:54.185Z,100417.19
2018-12-13T10:49:20.368Z,100414.16
2018-12-13T10:51:46.315Z,100418.70
2018-12-13T10:54:12.263Z,100412.22
2018-12-13T10:56:38.227Z,100415.73
2018-12-13T10:59:06.301Z,100410.64
2018-12-13T11:01:32.297Z,100411.48
2018-12-13T11:03:58.256Z,100407.20
2018-12-13T11:06:24.253Z,100406.22
2018-12-13T11:08:50.224Z,100405.60
2018-12-13T11:11:16.195Z,100410.28
2018-12-13T11:13:42.215Z,100403.42
2018-12-13T11:16:08.220Z,100400.50
2018-12-13T11:18:34.202Z,100395.57
2018-12-13T11:21:00.948Z,100399.94
2018-12-13T11:23:26.941Z,100399.03
2018-12-13T11:25:52.894Z,100396.83
2018-12-13T11:28:18.852Z,100395.06
2018-12-13T11:30:44.903Z,100397.34
2018-12-13T11:33:10.862Z,100395.86
2018-12-13T11:35:36.853Z,100388.48
2018-12-13T11:38:02.843Z,100380.22
2018-12-13T11:40:29.587Z,100386.80
2018-12-13T11:45:26.824Z,100378.76
2018-12-13T11:47:52.785Z,100374.17
2018-12-13T11:50:18.764Z,100368.42
2018-12-13T11:52:45.008Z,100369.59
2018-12-13T11:55:10.991Z,100368.56
2018-12-13T11:57:38.234Z,100368.59
2018-12-13T12:00:05.219Z,100369.34
2018-12-13T12:02:32.233Z,100366.52
2018-12-13T12:04:58.436Z,100365.19
2018-12-13T12:07:24.409Z,100372.84
2018-12-13T12:09:50.388Z,100372.19
2018-12-13T12:12:16.350Z,100368.63
2018-12-13T12:17:14.320Z,100363.23
2018-12-13T12:19:40.344Z,100356.78
2018-12-13T12:22:06.368Z,100356.86
2018-12-13T12:24:32.390Z,100362.33
2018-12-13T12:26:58.456Z,100350.20
2018-12-13T12:29:24.479Z,100358.33
2018-12-13T12:31:50.424Z,100357.02
2018-12-13T12:34:16.787Z,100355.02
2018-12-13T12:36:42.737Z,100356.97
2018-12-13T12:39:08.711Z,100357.92
2018-12-13T12:41:34.723Z,100355.33
2018-12-13T12:44:00.721Z,100352.61
2018-12-13T12:51:29.658Z,100353.55
2018-12-13T12:53:55.703Z,100344.81
2018-12-13T12:56:21.639Z,100343.95
2018-12-13T13:11:24.123Z,100339.48
2018-12-13T13:13:50.078Z,100342.75
2018-12-13T13:16:16.024Z,100334.91
2018-12-13T13:18:42.006Z,100339.06
2018-12-13T13:21:08.016Z,100334.98
2018-12-13T13:23:33.992Z,100339.52
2018-12-13T13:26:00.047Z,100329.66
2018-12-13T13:28:25.993Z,100330.69
2018-12-13T13:30:51.957Z,100334.84
2018-12-13T13:33:17.915Z,100333.07
2018-12-13T13:35:43.864Z,100330.56
2018-12-13T13:38:09.817Z,100327.02
2018-12-13T13:40:35.793Z,100330.55
2018-12-13T13:43:02.302Z,100328.59
2018-12-13T13:45:28.274Z,100327.80
2018-12-13T13:47:54.238Z,100333.41
2018-12-13T13:50:20.202Z,100336.81
2018-12-13T13:52:46.187Z,100337.90
2018-12-13T13:55:12.160Z,100333.94
2018-12-13T14:02:42.202Z,100335.28
2018-12-13T14:05:08.184Z,100329.18
2018-12-13T14:07:34.280Z,100329.62
2018-12-13T14:10:00.236Z,100333.86
2018-12-13T14:12:26.191Z,100329.75
2018-12-13T14:14:52.168Z,100338.06
2018-12-13T14:17:18.856Z,100332.45
2018-12-13T14:19:45.017Z,100333.13
2018-12-13T14:22:11.048Z,100334.41
2018-12-13T14:24:37.007Z,100332.47
2018-12-13T14:27:09.063Z,100330.30
2018-12-13T14:29:35.120Z,100333.96
2018-12-13T14:32:01.082Z,100331.28
2018-12-13T14:34:27.063Z,100328.38
2018-12-13T14:36:53.032Z,100337.42
2018-12-13T14:39:19.205Z,100334.41
2018-12-13T14:41:45.187Z,100329.16
2018-12-13T14:44:11.156Z,100333.05
2018-12-13T14:46:38.088Z,100330.81
2018-12-13T14:49:04.053Z,100330.80
2018-12-13T14:51:33.175Z,100329.34
2018-12-13T14:53:59.576Z,100333.02
2018-12-13T14:56:25.603Z,100330.27
2018-12-13T14:58:51.621Z,100331.45
2018-12-13T15:01:17.557Z,100329.30
2018-12-13T15:03:43.548Z,100329.13
2018-12-13T15:06:09.508Z,100325.27
2018-12-13T15:08:35.799Z,100319.44
2018-12-13T15:11:01.780Z,100327.21
2018-12-13T15:13:27.744Z,100328.87
2018-12-13T15:15:54.834Z,100321.19
2018-12-13T15:18:21.015Z,100316.23
2018-12-13T15:20:48.194Z,100323.12
2018-12-13T15:23:14.192Z,100326.53
2018-12-13T15:25:40.203Z,100328.13
2018-12-13T15:28:06.292Z,100326.89
2018-12-13T15:30:32.251Z,100334.84
2018-12-13T15:32:58.223Z,100330.09
2018-12-13T15:35:24.176Z,100332.43
2018-12-13T15:37:50.748Z,100332.48
2018-12-13T15:40:16.760Z,100333.95
2018-12-13T15:42:42.761Z,100335.34
2018-12-13T15:45:08.753Z,100331.17
2018-12-13T15:47:34.768Z,100330.16
2018-12-13T15:50:00.720Z,100332.47
2018-12-13T15:52:26.759Z,100333.20
2018-12-13T15:54:52.808Z,100331.00
2018-12-13T15:57:18.796Z,100325.45
2018-12-13T15:59:45.788Z,100323.77
2018-12-13T16:02:11.776Z,100327.23
2018-12-13T16:04:38.037Z,100322.69
2018-12-13T16:07:03.985Z,100320.19
2018-12-13T16:09:29.996Z,100326.42
2018-12-13T16:11:56.910Z,100328.66
2018-12-13T16:14:22.899Z,100325.11
2018-12-13T16:16:48.866Z,100326.45
2018-12-13T16:19:14.827Z,100324.47
2018-12-13T16:21:40.792Z,100324.08
2018-12-13T16:24:07.633Z,100324.21
2018-12-13T16:26:33.580Z,100327.43
2018-12-13T16:28:59.552Z,100321.33
2018-12-13T16:31:25.525Z,100319.54
2018-12-13T16:33:58.095Z,100317.48
2018-12-13T16:36:25.151Z,100312.53
2018-12-13T16:41:23.044Z,100324.08
2018-12-13T16:43:49.024Z,100324.61
2018-12-13T16:46:15.103Z,100328.84
2018-12-13T16:48:41.091Z,100326.98
2018-12-13T16:51:07.065Z,100326.73
2018-12-13T16:53:33.041Z,100333.74
2018-12-13T16:56:00.196Z,100327.83
2018-12-13T16:58:26.168Z,100328.75
2018-12-13T17:00:52.168Z,100328.70
2018-12-13T17:03:18.170Z,100326.78
2018-12-13T17:05:44.112Z,100329.03
2018-12-13T17:08:10.083Z,100328.03
2018-12-13T17:10:36.051Z,100334.05
2018-12-13T17:13:01.992Z,100335.27
2018-12-13T17:15:27.933Z,100327.70
2018-12-13T17:17:53.878Z,100326.66
2018-12-13T17:20:19.907Z,100323.68
2018-12-13T17:22:45.887Z,100318.52
2018-12-13T17:25:12.120Z,100326.04
2018-12-13T17:27:38.314Z,100328.42
2018-12-13T17:30:04.348Z,100325.61
2018-12-13T17:32:30.411Z,100326.93
2018-12-13T17:34:56.513Z,100325.28
2018-12-13T17:37:22.881Z,100329.52
2018-12-13T17:39:48.841Z,100331.81
2018-12-13T17:42:14.855Z,100331.36
2018-12-13T17:44:40.822Z,100335.66
2018-12-13T17:47:06.908Z,100338.98
2018-12-13T17:49:32.925Z,100330.98
2018-12-13T17:51:58.968Z,100335.21
2018-12-13T17:54:24.953Z,100332.54
2018-12-13T17:56:50.909Z,100338.85
2018-12-13T17:59:16.865Z,100341.63
2018-12-13T18:01:42.855Z,100346.36
2018-12-13T18:04:08.825Z,100341.84
2018-12-13T18:06:34.800Z,100347.02
2018-12-13T18:09:00.756Z,100341.44
2018-12-13T18:11:26.728Z,100343.96
2018-12-13T18:13:52.668Z,100342.78
2018-12-13T18:16:18.618Z,100341.63
2018-12-13T18:18:45.442Z,100350.52
2018-12-13T18:21:11.387Z,100348.67
2018-12-13T18:23:37.401Z,100351.86
2018-12-13T18:26:04.450Z,100351.20
2018-12-13T18:28:30.429Z,100352.51
2018-12-13T18:30:56.397Z,100351.25
2018-12-13T18:33:22.359Z,100354.72
2018-12-13T18:35:48.338Z,100355.30
2018-12-13T18:38:14.327Z,100357.44
2018-12-13T18:40:40.296Z,100352.23
2018-12-13T18:43:06.280Z,100357.24
2018-12-13T18:45:32.388Z,100355.75
2018-12-13T18:47:59.360Z,100356.35
2018-12-13T18:50:25.353Z,100355.27
2018-12-13T18:52:51.313Z,100353.20
2018-12-13T18:55:17.291Z,100354.33
2018-12-13T19:00:15.687Z,100345.83
2018-12-13T19:02:41.679Z,100350.80
2018-12-13T19:05:07.629Z,100349.86
2018-12-13T19:07:33.591Z,100350.70
2018-12-13T19:09:59.559Z,100352.39
2018-12-13T19:12:26.973Z,100350.88
2018-12-13T19:14:53.048Z,100352.39
2018-12-13T19:17:19.019Z,100351.30
2018-12-13T19:19:44.973Z,100346.86
2018-12-13T19:22:10.934Z,100342.14
2018-12-13T19:24:36.913Z,100343.52
2018-12-13T19:27:02.881Z,100343.38
2018-12-13T19:29:28.861Z,100343.60
2018-12-13T19:31:54.809Z,100342.64
2018-12-13T19:34:20.981Z,100342.22
2018-12-13T19:36:47.950Z,100336.95
2018-12-13T19:39:13.890Z,100338.62
2018-12-13T19:41:39.855Z,100342.07
2018-12-13T19:44:05.869Z,100337.68
2018-12-13T19:46:31.820Z,100343.62
2018-12-13T19:48:57.782Z,100338.97
2018-12-13T19:51:23.728Z,100346.39
2018-12-13T19:53:49.734Z,100347.45
2018-12-13T19:56:15.698Z,100349.56
2018-12-13T19:58:41.857Z,100347.17
2018-12-13T20:01:07.837Z,100348.11
2018-12-13T20:03:33.829Z,100348.47
2018-12-13T20:05:59.820Z,100349.75
2018-12-13T20:08:25.932Z,100351.38
2018-12-13T20:10:54.677Z,100361.48
2018-12-13T20:13:19.877Z,100362.38
2018-12-13T20:15:45.890Z,100363.78
2018-12-13T20:18:11.845Z,100365.99
2018-12-13T20:20:38.392Z,100370.84
2018-12-13T20:23:04.497Z,100359.83
2018-12-13T20:25:30.570Z,100359.58
2018-12-13T20:27:56.665Z,100367.48
2018-12-13T20:30:22.614Z,100363.14
2018-12-13T20:32:48.552Z,100365.87
2018-12-13T20:35:14.629Z,100368.47
2018-12-13T20:37:40.650Z,100363.47
2018-12-13T20:40:06.675Z,100361.08
2018-12-13T20:42:32.643Z,100366.73
2018-12-13T20:44:58.596Z,100371.77
2018-12-13T20:47:25.619Z,100375.02
2018-12-13T20:49:51.595Z,100370.43
2018-12-13T20:52:17.645Z,100373.58
2018-12-13T20:54:43.616Z,100372.56
2018-12-13T20:57:09.684Z,100364.75
2018-12-13T20:59:35.693Z,100365.14
2018-12-13T21:02:01.793Z,100372.92
2018-12-13T21:04:27.729Z,100376.77
2018-12-13T21:06:53.767Z,100374.81
2018-12-13T21:09:19.836Z,100383.88
2018-12-13T21:11:45.836Z,100381.86
2018-12-13T21:14:11.995Z,100383.59
2018-12-13T21:16:38.209Z,100378.92
2018-12-13T21:19:04.156Z,100385.67
2018-12-13T21:21:30.123Z,100385.81
2018-12-13T21:23:56.071Z,100387.02
2018-12-13T21:26:22.074Z,100385.80
2018-12-13T21:28:48.420Z,100387.23
2018-12-13T21:31:14.461Z,100378.63
2018-12-13T21:33:40.476Z,100378.59
2018-12-13T21:36:06.536Z,100372.99
2018-12-13T21:38:32.511Z,100376.78
2018-12-13T21:40:58.511Z,100372.56
2018-12-13T21:43:24.569Z,100373.62
2018-12-13T21:45:50.525Z,100379.00
2018-12-13T21:48:16.474Z,100378.63
2018-12-13T21:50:42.577Z,100376.37
2018-12-13T21:53:08.557Z,100383.37
2018-12-13T21:55:34.499Z,100376.93
2018-12-13T21:58:00.517Z,100373.09
2018-12-13T22:00:26.635Z,100369.44
2018-12-13T22:02:53.261Z,100377.73
2018-12-13T22:05:19.215Z,100373.66
2018-12-13T22:07:45.195Z,100374.75
2018-12-13T22:10:11.241Z,100378.27
2018-12-13T22:12:37.229Z,100375.52
2018-12-13T22:15:03.198Z,100373.59
2018-12-13T22:17:29.169Z,100378.28
2018-12-13T22:19:55.118Z,100377.20
2018-12-13T22:22:21.061Z,100376.41
2018-12-13T22:24:47.023Z,100377.54
2018-12-13T22:27:13.875Z,100377.89
2018-12-13T22:29:39.842Z,100381.86
2018-12-13T22:32:05.804Z,100386.05
2018-12-13T22:34:31.751Z,100386.63
2018-12-13T22:36:57.692Z,100383.20
2018-12-13T22:39:23.648Z,100378.27
2018-12-13T22:41:49.616Z,100380.83
2018-12-13T22:44:15.560Z,100381.17
2018-12-13T22:46:41.572Z,100375.98
2018-12-13T22:49:07.523Z,100372.05
2018-12-13T22:51:33.530Z,100373.96
2018-12-13T22:53:59.474Z,100379.30
2018-12-13T22:56:25.432Z,100381.41
2018-12-13T22:58:51.374Z,100372.92
2018-12-13T23:01:17.344Z,100375.25
2018-12-13T23:03:43.334Z,100373.53
2018-12-13T23:06:09.540Z,100373.17
2018-12-13T23:08:35.480Z,100373.52
2018-12-13T23:11:01.424Z,100365.53
2018-12-13T23:13:27.369Z,100370.89
2018-12-13T23:15:53.308Z,100377.37
2018-12-13T23:18:19.277Z,100375.84
2018-12-13T23:20:45.292Z,100380.57
2018-12-13T23:23:11.240Z,100375.33
2018-12-13T23:25:37.209Z,100380.26
2018-12-13T23:28:04.179Z,100376.94
2018-12-13T23:30:30.113Z,100373.36
2018-12-13T23:32:56.140Z,100370.77
2018-12-13T23:35:22.085Z,100374.48
2018-12-13T23:37:48.031Z,100370.28
2018-12-13T23:40:13.969Z,100375.73
2018-12-13T23:42:39.902Z,100379.19
2018-12-13T23:45:05.853Z,100374.08
2018-12-13T23:47:31.792Z,100373.42
2018-12-13T23:49:57.768Z,100376.27
2018-12-13T23:52:23.749Z,100378.72
2018-12-13T23:54:49.723Z,100380.02
2018-12-13T23:57:15.677Z,100377.52
2018-12-13T23:59:41.704Z,100381.31
